sensor_id;sensor_type;location;lat;lon;timestamp;pressure;altitude;pressure_sealevel;temperature;humidity
68320;BME280;55168;51.120;17.024;2023-11-19T00:00:00;100680;;;1.6;100.0
68320;BME280;55168;51.120;17.024;2023-11-19T00:01:00;100680;;;1.6;100.0
68320;BME280;55168;51.120;17.024;2023-11-19T00:02:00;100680;;;1.6;100.0
68320;BME280;55168;51.120;17.024;2023-11-19T00:03:00;100680;;;1.6;100.0
68320;BME280;55168;51.120;17.024;2023-11-19T00:04:00;100680;;;1.6;100.0
68320;BME280;55168;51.120;17.024;2023-11-19T00:05:00;100680;;;1.6;100.0
68320;BME280;55168;51.120;17.024;2023-11-19T00:06:00;100680;;;1.6;100.0
68320;BME280;55168;51.120;17.024;2023-11-19T00:07:00;100670;;;1.6;100.0
68320;BME280;55168;51.120;17.024;2023-11-19T00:08:00;100670;;;1.6;100.0
68320;BME280;55168;51.120;17.024;2023-11-19T00:09:00;100660;;;1.6;100.0
68320;BME280;55168;51.120;17.024;2023-11-19T00:10:00;100650;;;1.6;100.0
68320;BME280;55168;51.120;17.024;2023-11-19T00:11:00;100650;;;1.6;100.0
68320;BME280;55168;51.120;17.024;2023-11-19T00:12:00;100650;;;1.6;100.0
68320;BME280;55168;51.120;17.024;2023-11-19T00:13:00;100640;;;1.6;100.0
68320;BME280;55168;51.120;17.024;2023-11-19T00:14:00;100650;;;1.6;100.0
68320;BME280;55168;51.120;17.024;2023-11-19T00:15:00;100630;;;1.6;100.0
68320;BME280;55168;51.120;17.024;2023-11-19T00:16:00;100630;;;1.6;100.0
68320;BME280;55168;51.120;17.024;2023-11-19T00:17:00;100630;;;1.6;100.0
68320;BME280;55168;51.120;17.024;2023-11-19T00:18:00;100630;;;1.6;100.0
68320;BME280;55168;51.120;17.024;2023-11-19T00:19:00;100630;;;1.6;100.0
68320;BME280;55168;51.120;17.024;2023-11-19T00:20:00;100620;;;1.6;100.0
68320;BME280;55168;51.120;17.024;2023-11-19T00:21:00;100620;;;1.5;100.0
68320;BME280;55168;51.120;17.024;2023-11-19T00:22:00;100620;;;1.5;100.0
68320;BME280;55168;51.120;17.024;2023-11-19T00:23:00;100620;;;1.5;100.0
68320;BME280;55168;51.120;17.024;2023-11-19T00:24:00;100620;;;1.5;100.0
68320;BME280;55168;51.120;17.024;2023-11-19T00:25:00;100620;;;1.5;100.0
68320;BME280;55168;51.120;17.024;2023-11-19T00:26:00;100610;;;1.5;100.0
68320;BME280;55168;51.120;17.024;2023-11-19T00:27:00;100610;;;1.5;100.0
68320;BME280;55168;51.120;17.024;2023-11-19T00:28:00;100610;;;1.5;100.0
68320;BME280;55168;51.120;17.024;2023-11-19T00:29:00;100610;;;1.4;100.0
68320;BME280;55168;51.120;17.024;2023-11-19T00:30:00;100610;;;1.4;100.0
68320;BME280;55168;51.120;17.024;2023-11-19T00:31:00;100610;;;1.4;100.0
68320;BME280;55168;51.120;17.024;2023-11-19T00:32:00;100600;;;1.4;100.0
68320;BME280;55168;51.120;17.024;2023-11-19T00:33:00;100600;;;1.4;100.0
68320;BME280;55168;51.120;17.024;2023-11-19T00:34:00;100600;;;1.4;100.0
68320;BME280;55168;51.120;17.024;2023-11-19T00:35:00;100590;;;1.4;100.0
68320;BME280;55168;51.120;17.024;2023-11-19T00:36:00;100590;;;1.3;100.0
68320;BME280;55168;51.120;17.024;2023-11-19T00:37:00;100580;;;1.3;100.0
68320;BME280;55168;51.120;17.024;2023-11-19T00:38:00;100580;;;1.3;100.0
68320;BME280;55168;51.120;17.024;2023-11-19T00:39:00;100580;;;1.3;100.0
68320;BME280;55168;51.120;17.024;2023-11-19T00:40:00;100590;;;1.3;100.0
68320;BME280;55168;51.120;17.024;2023-11-19T00:41:00;100590;;;1.3;100.0
68320;BME280;55168;51.120;17.024;2023-11-19T00:42:00;100590;;;1.2;100.0
68320;BME280;55168;51.120;17.024;2023-11-19T00:43:00;100590;;;1.2;100.0
68320;BME280;55168;51.120;17.024;2023-11-19T00:44:00;100590;;;1.2;100.0
68320;BME280;55168;51.120;17.024;2023-11-19T00:45:00;100590;;;1.2;100.0
68320;BME280;55168;51.120;17.024;2023-11-19T00:46:00;100580;;;1.2;100.0
68320;BME280;55168;51.120;17.024;2023-11-19T00:47:00;100580;;;1.1;100.0
68320;BME280;55168;51.120;17.024;2023-11-19T00:48:00;100570;;;1.1;100.0
68320;BME280;55168;51.120;17.024;2023-11-19T00:49:00;100560;;;1.1;100.0
68320;BME280;55168;51.120;17.024;2023-11-19T00:50:00;100560;;;1.1;100.0
68320;BME280;55168;51.120;17.024;2023-11-19T00:51:00;100550;;;1.1;100.0
68320;BME280;55168;51.120;17.024;2023-11-19T00:52:00;100550;;;1.1;100.0
68320;BME280;55168;51.120;17.024;2023-11-19T00:53:00;100550;;;1.1;100.0
68320;BME280;55168;51.120;17.024;2023-11-19T00:54:00;100550;;;1.1;100.0
68320;BME280;55168;51.120;17.024;2023-11-19T00:55:00;100550;;;1.1;100.0
68320;BME280;55168;51.120;17.024;2023-11-19T00:56:00;100550;;;1.0;100.0
68320;BME280;55168;51.120;17.024;2023-11-19T00:57:00;100550;;;1.0;100.0
68320;BME280;55168;51.120;17.024;2023-11-19T00:58:00;100550;;;1.0;100.0
68320;BME280;55168;51.120;17.024;2023-11-19T00:59:00;100560;;;1.0;100.0
68320;BME280;55168;51.120;17.024;2023-11-19T01:00:00;100560;;;1.0;100.0
68320;BME280;55168;51.120;17.024;2023-11-19T01:01:00;100550;;;1.0;100.0
68320;BME280;55168;51.120;17.024;2023-11-19T01:02:00;100550;;;1.0;100.0
68320;BME280;55168;51.120;17.024;2023-11-19T01:03:00;100550;;;1.0;100.0
68320;BME280;55168;51.120;17.024;2023-11-19T01:04:00;100540;;;1.0;100.0
68320;BME280;55168;51.120;17.024;2023-11-19T01:05:00;100530;;;1.0;100.0
68320;BME280;55168;51.120;17.024;2023-11-19T01:06:01;100530;;;0.9;100.0
68320;BME280;55168;51.120;17.024;2023-11-19T01:07:01;100530;;;0.9;100.0
68320;BME280;55168;51.120;17.024;2023-11-19T01:08:00;100520;;;0.9;100.0
68320;BME280;55168;51.120;17.024;2023-11-19T01:09:00;100520;;;0.9;100.0
68320;BME280;55168;51.120;17.024;2023-11-19T01:10:00;100510;;;0.9;100.0
68320;BME280;55168;51.120;17.024;2023-11-19T01:11:00;100510;;;0.9;100.0
68320;BME280;55168;51.120;17.024;2023-11-19T01:12:00;100500;;;0.9;100.0
68320;BME280;55168;51.120;17.024;2023-11-19T01:13:00;100500;;;0.9;100.0
68320;BME280;55168;51.120;17.024;2023-11-19T01:14:00;100500;;;0.9;100.0
68320;BME280;55168;51.120;17.024;2023-11-19T01:15:00;100500;;;0.9;100.0
68320;BME280;55168;51.120;17.024;2023-11-19T01:16:00;100490;;;0.9;100.0
68320;BME280;55168;51.120;17.024;2023-11-19T01:17:00;100490;;;0.9;100.0
68320;BME280;55168;51.120;17.024;2023-11-19T01:18:00;100480;;;0.9;100.0
68320;BME280;55168;51.120;17.024;2023-11-19T01:19:00;100480;;;0.8;100.0
68320;BME280;55168;51.120;17.024;2023-11-19T01:20:00;100470;;;0.8;100.0
68320;BME280;55168;51.120;17.024;2023-11-19T01:21:00;100470;;;0.8;100.0
68320;BME280;55168;51.120;17.024;2023-11-19T01:22:00;100470;;;0.8;100.0
68320;BME280;55168;51.120;17.024;2023-11-19T01:23:00;100470;;;0.8;100.0
68320;BME280;55168;51.120;17.024;2023-11-19T01:24:00;100460;;;0.8;100.0
68320;BME280;55168;51.120;17.024;2023-11-19T01:25:00;100460;;;0.8;100.0
68320;BME280;55168;51.120;17.024;2023-11-19T01:26:00;100460;;;0.8;100.0
68320;BME280;55168;51.120;17.024;2023-11-19T01:27:00;100460;;;0.7;100.0
68320;BME280;55168;51.120;17.024;2023-11-19T01:28:00;100460;;;0.7;100.0
68320;BME280;55168;51.120;17.024;2023-11-19T01:29:00;100450;;;0.7;100.0
68320;BME280;55168;51.120;17.024;2023-11-19T01:30:00;100450;;;0.7;100.0
68320;BME280;55168;51.120;17.024;2023-11-19T01:31:00;100450;;;0.7;100.0
68320;BME280;55168;51.120;17.024;2023-11-19T01:32:00;100460;;;0.7;100.0
68320;BME280;55168;51.120;17.024;2023-11-19T01:33:00;100450;;;0.7;100.0
68320;BME280;55168;51.120;17.024;2023-11-19T01:34:00;100450;;;0.7;100.0
68320;BME280;55168;51.120;17.024;2023-11-19T01:35:00;100460;;;0.7;100.0
68320;BME280;55168;51.120;17.024;2023-11-19T01:36:00;100450;;;0.7;100.0
68320;BME280;55168;51.120;17.024;2023-11-19T01:37:00;100450;;;0.7;100.0
68320;BME280;55168;51.120;17.024;2023-11-19T01:38:00;100440;;;0.7;100.0
68320;BME280;55168;51.120;17.024;2023-11-19T01:39:00;100440;;;0.6;100.0
68320;BME280;55168;51.120;17.024;2023-11-19T01:40:00;100440;;;0.6;100.0
68320;BME280;55168;51.120;17.024;2023-11-19T01:41:00;100430;;;0.6;100.0
68320;BME280;55168;51.120;17.024;2023-11-19T01:42:00;100420;;;0.6;100.0
68320;BME280;55168;51.120;17.024;2023-11-19T01:43:00;100430;;;0.6;100.0
68320;BME280;55168;51.120;17.024;2023-11-19T01:44:00;100430;;;0.6;100.0
68320;BME280;55168;51.120;17.024;2023-11-19T01:45:00;100430;;;0.6;100.0
68320;BME280;55168;51.120;17.024;2023-11-19T01:46:00;100430;;;0.6;100.0
68320;BME280;55168;51.120;17.024;2023-11-19T01:47:00;100440;;;0.6;100.0
68320;BME280;55168;51.120;17.024;2023-11-19T01:48:00;100430;;;0.6;100.0
68320;BME280;55168;51.120;17.024;2023-11-19T01:49:00;100440;;;0.6;100.0
68320;BME280;55168;51.120;17.024;2023-11-19T01:50:00;100430;;;0.6;100.0
68320;BME280;55168;51.120;17.024;2023-11-19T01:51:00;100440;;;0.6;100.0
68320;BME280;55168;51.120;17.024;2023-11-19T01:52:00;100440;;;0.6;100.0
68320;BME280;55168;51.120;17.024;2023-11-19T01:53:00;100430;;;0.6;100.0
68320;BME280;55168;51.120;17.024;2023-11-19T01:54:00;100440;;;0.6;100.0
68320;BME280;55168;51.120;17.024;2023-11-19T01:55:00;100440;;;0.6;100.0
68320;BME280;55168;51.120;17.024;2023-11-19T01:56:00;100430;;;0.7;100.0
68320;BME280;55168;51.120;17.024;2023-11-19T01:57:00;100420;;;0.7;100.0
68320;BME280;55168;51.120;17.024;2023-11-19T01:58:00;100420;;;0.7;100.0
68320;BME280;55168;51.120;17.024;2023-11-19T01:59:00;100420;;;0.7;100.0
68320;BME280;55168;51.120;17.024;2023-11-19T02:00:00;100420;;;0.7;100.0
68320;BME280;55168;51.120;17.024;2023-11-19T02:01:00;100410;;;0.7;100.0
68320;BME280;55168;51.120;17.024;2023-11-19T02:02:00;100420;;;0.7;100.0
68320;BME280;55168;51.120;17.024;2023-11-19T02:03:00;100410;;;0.7;100.0
68320;BME280;55168;51.120;17.024;2023-11-19T02:04:00;100400;;;0.7;100.0
68320;BME280;55168;51.120;17.024;2023-11-19T02:05:00;100400;;;0.7;100.0
68320;BME280;55168;51.120;17.024;2023-11-19T02:06:00;100400;;;0.7;100.0
68320;BME280;55168;51.120;17.024;2023-11-19T02:07:00;100400;;;0.7;100.0
68320;BME280;55168;51.120;17.024;2023-11-19T02:08:00;100400;;;0.7;100.0
68320;BME280;55168;51.120;17.024;2023-11-19T02:09:00;100400;;;0.7;100.0
68320;BME280;55168;51.120;17.024;2023-11-19T02:10:00;100400;;;0.7;100.0
68320;BME280;55168;51.120;17.024;2023-11-19T02:11:00;100400;;;0.7;100.0
68320;BME280;55168;51.120;17.024;2023-11-19T02:12:00;100410;;;0.7;100.0
68320;BME280;55168;51.120;17.024;2023-11-19T02:13:00;100410;;;0.7;100.0
68320;BME280;55168;51.120;17.024;2023-11-19T02:14:00;100410;;;0.7;100.0
68320;BME280;55168;51.120;17.024;2023-11-19T02:15:00;100410;;;0.7;100.0
68320;BME280;55168;51.120;17.024;2023-11-19T02:16:00;100410;;;0.7;100.0
68320;BME280;55168;51.120;17.024;2023-11-19T02:17:00;100400;;;0.7;100.0
68320;BME280;55168;51.120;17.024;2023-11-19T02:19:00;100390;;;0.7;100.0
68320;BME280;55168;51.120;17.024;2023-11-19T02:20:00;100390;;;0.7;100.0
68320;BME280;55168;51.120;17.024;2023-11-19T02:21:00;100390;;;0.7;100.0
68320;BME280;55168;51.120;17.024;2023-11-19T02:22:00;100390;;;0.7;100.0
68320;BME280;55168;51.120;17.024;2023-11-19T02:23:00;100380;;;0.7;100.0
68320;BME280;55168;51.120;17.024;2023-11-19T02:24:00;100380;;;0.7;100.0
68320;BME280;55168;51.120;17.024;2023-11-19T02:25:00;100380;;;0.7;100.0
68320;BME280;55168;51.120;17.024;2023-11-19T02:27:06;100380;;;0.7;100.0
68320;BME280;55168;51.120;17.024;2023-11-19T02:28:01;100380;;;0.7;100.0
68320;BME280;55168;51.120;17.024;2023-11-19T02:29:00;100380;;;0.6;100.0
68320;BME280;55168;51.120;17.024;2023-11-19T02:30:00;100380;;;0.6;100.0
68320;BME280;55168;51.120;17.024;2023-11-19T02:31:00;100380;;;0.6;100.0
68320;BME280;55168;51.120;17.024;2023-11-19T02:32:00;100370;;;0.6;100.0
68320;BME280;55168;51.120;17.024;2023-11-19T02:33:00;100370;;;0.6;100.0
68320;BME280;55168;51.120;17.024;2023-11-19T02:34:00;100370;;;0.6;100.0
68320;BME280;55168;51.120;17.024;2023-11-19T02:35:00;100360;;;0.6;100.0
68320;BME280;55168;51.120;17.024;2023-11-19T02:36:00;100360;;;0.6;100.0
68320;BME280;55168;51.120;17.024;2023-11-19T02:37:00;100360;;;0.6;100.0
68320;BME280;55168;51.120;17.024;2023-11-19T02:38:00;100350;;;0.6;100.0
68320;BME280;55168;51.120;17.024;2023-11-19T02:39:00;100350;;;0.6;100.0
68320;BME280;55168;51.120;17.024;2023-11-19T02:40:00;100350;;;0.6;100.0
68320;BME280;55168;51.120;17.024;2023-11-19T02:41:02;100350;;;0.6;100.0
68320;BME280;55168;51.120;17.024;2023-11-19T02:42:00;100350;;;0.6;100.0
68320;BME280;55168;51.120;17.024;2023-11-19T02:43:00;100350;;;0.6;100.0
68320;BME280;55168;51.120;17.024;2023-11-19T02:44:00;100350;;;0.6;100.0
68320;BME280;55168;51.120;17.024;2023-11-19T02:45:00;100360;;;0.6;100.0
68320;BME280;55168;51.120;17.024;2023-11-19T02:46:01;100350;;;0.6;100.0
68320;BME280;55168;51.120;17.024;2023-11-19T02:47:00;100350;;;0.6;100.0
68320;BME280;55168;51.120;17.024;2023-11-19T02:48:00;100350;;;0.6;100.0
68320;BME280;55168;51.120;17.024;2023-11-19T02:49:00;100350;;;0.6;100.0
68320;BME280;55168;51.120;17.024;2023-11-19T02:50:00;100350;;;0.6;100.0
68320;BME280;55168;51.120;17.024;2023-11-19T02:51:00;100350;;;0.6;100.0
68320;BME280;55168;51.120;17.024;2023-11-19T02:52:00;100350;;;0.6;100.0
68320;BME280;55168;51.120;17.024;2023-11-19T02:53:00;100360;;;0.6;100.0
68320;BME280;55168;51.120;17.024;2023-11-19T02:54:00;100360;;;0.6;100.0
68320;BME280;55168;51.120;17.024;2023-11-19T02:55:00;100360;;;0.6;100.0
68320;BME280;55168;51.120;17.024;2023-11-19T02:56:00;100360;;;0.6;100.0
68320;BME280;55168;51.120;17.024;2023-11-19T02:57:00;100350;;;0.6;100.0
68320;BME280;55168;51.120;17.024;2023-11-19T02:58:00;100340;;;0.6;100.0
68320;BME280;55168;51.120;17.024;2023-11-19T02:59:00;100330;;;0.6;100.0
68320;BME280;55168;51.120;17.024;2023-11-19T03:00:00;100330;;;0.6;100.0
68320;BME280;55168;51.120;17.024;2023-11-19T03:01:00;100330;;;0.6;100.0
68320;BME280;55168;51.120;17.024;2023-11-19T03:02:00;100330;;;0.6;100.0
68320;BME280;55168;51.120;17.024;2023-11-19T03:03:00;100330;;;0.6;100.0
68320;BME280;55168;51.120;17.024;2023-11-19T03:04:00;100330;;;0.6;100.0
68320;BME280;55168;51.120;17.024;2023-11-19T03:05:00;100320;;;0.6;100.0
68320;BME280;55168;51.120;17.024;2023-11-19T03:06:00;100320;;;0.6;100.0
68320;BME280;55168;51.120;17.024;2023-11-19T03:07:00;100310;;;0.6;100.0
68320;BME280;55168;51.120;17.024;2023-11-19T03:08:00;100310;;;0.6;100.0
68320;BME280;55168;51.120;17.024;2023-11-19T03:09:00;100300;;;0.6;100.0
68320;BME280;55168;51.120;17.024;2023-11-19T03:10:00;100300;;;0.6;100.0
68320;BME280;55168;51.120;17.024;2023-11-19T03:11:00;100300;;;0.6;100.0
68320;BME280;55168;51.120;17.024;2023-11-19T03:12:00;100300;;;0.5;100.0
68320;BME280;55168;51.120;17.024;2023-11-19T03:13:00;100290;;;0.6;100.0
68320;BME280;55168;51.120;17.024;2023-11-19T03:14:00;100290;;;0.5;100.0
68320;BME280;55168;51.120;17.024;2023-11-19T03:15:00;100290;;;0.5;100.0
68320;BME280;55168;51.120;17.024;2023-11-19T03:16:00;100290;;;0.5;100.0
68320;BME280;55168;51.120;17.024;2023-11-19T03:17:00;100280;;;0.5;100.0
68320;BME280;55168;51.120;17.024;2023-11-19T03:18:00;100290;;;0.5;100.0
68320;BME280;55168;51.120;17.024;2023-11-19T03:19:00;100280;;;0.5;100.0
68320;BME280;55168;51.120;17.024;2023-11-19T03:20:00;100270;;;0.5;100.0
68320;BME280;55168;51.120;17.024;2023-11-19T03:21:00;100270;;;0.5;100.0
68320;BME280;55168;51.120;17.024;2023-11-19T03:22:01;100260;;;0.5;100.0
68320;BME280;55168;51.120;17.024;2023-11-19T03:23:00;100270;;;0.5;100.0
68320;BME280;55168;51.120;17.024;2023-11-19T03:24:00;100280;;;0.5;100.0
68320;BME280;55168;51.120;17.024;2023-11-19T03:25:00;100280;;;0.5;100.0
68320;BME280;55168;51.120;17.024;2023-11-19T03:26:00;100280;;;0.5;100.0
68320;BME280;55168;51.120;17.024;2023-11-19T03:27:00;100280;;;0.5;100.0
68320;BME280;55168;51.120;17.024;2023-11-19T03:28:00;100280;;;0.5;100.0
68320;BME280;55168;51.120;17.024;2023-11-19T03:29:00;100270;;;0.5;100.0
68320;BME280;55168;51.120;17.024;2023-11-19T03:30:00;100270;;;0.5;100.0
68320;BME280;55168;51.120;17.024;2023-11-19T03:31:00;100270;;;0.5;100.0
68320;BME280;55168;51.120;17.024;2023-11-19T03:32:00;100270;;;0.5;100.0
68320;BME280;55168;51.120;17.024;2023-11-19T03:33:00;100260;;;0.5;100.0
68320;BME280;55168;51.120;17.024;2023-11-19T03:34:00;100260;;;0.5;100.0
68320;BME280;55168;51.120;17.024;2023-11-19T03:35:00;100260;;;0.5;100.0
68320;BME280;55168;51.120;17.024;2023-11-19T03:36:00;100270;;;0.5;100.0
68320;BME280;55168;51.120;17.024;2023-11-19T03:37:00;100270;;;0.5;100.0
68320;BME280;55168;51.120;17.024;2023-11-19T03:38:00;100270;;;0.5;100.0
68320;BME280;55168;51.120;17.024;2023-11-19T03:39:00;100270;;;0.5;100.0
68320;BME280;55168;51.120;17.024;2023-11-19T03:40:00;100270;;;0.5;100.0
68320;BME280;55168;51.120;17.024;2023-11-19T03:41:00;100260;;;0.5;100.0
68320;BME280;55168;51.120;17.024;2023-11-19T03:42:00;100250;;;0.5;100.0
68320;BME280;55168;51.120;17.024;2023-11-19T03:43:00;100250;;;0.5;100.0
68320;BME280;55168;51.120;17.024;2023-11-19T03:44:00;100250;;;0.5;100.0
68320;BME280;55168;51.120;17.024;2023-11-19T03:45:00;100240;;;0.5;100.0
68320;BME280;55168;51.120;17.024;2023-11-19T03:46:00;100240;;;0.5;100.0
68320;BME280;55168;51.120;17.024;2023-11-19T03:47:00;100230;;;0.5;100.0
68320;BME280;55168;51.120;17.024;2023-11-19T03:48:00;100230;;;0.5;100.0
68320;BME280;55168;51.120;17.024;2023-11-19T03:49:00;100240;;;0.5;100.0
68320;BME280;55168;51.120;17.024;2023-11-19T03:50:00;100240;;;0.5;100.0
68320;BME280;55168;51.120;17.024;2023-11-19T03:51:00;100240;;;0.5;100.0
68320;BME280;55168;51.120;17.024;2023-11-19T03:52:00;100230;;;0.5;100.0
68320;BME280;55168;51.120;17.024;2023-11-19T03:53:00;100230;;;0.5;100.0
68320;BME280;55168;51.120;17.024;2023-11-19T03:54:00;100230;;;0.5;100.0
68320;BME280;55168;51.120;17.024;2023-11-19T03:55:00;100220;;;0.5;100.0
68320;BME280;55168;51.120;17.024;2023-11-19T03:56:00;100220;;;0.5;100.0
68320;BME280;55168;51.120;17.024;2023-11-19T03:57:00;100220;;;0.5;100.0
68320;BME280;55168;51.120;17.024;2023-11-19T03:58:00;100210;;;0.5;100.0
68320;BME280;55168;51.120;17.024;2023-11-19T03:59:00;100200;;;0.5;100.0
68320;BME280;55168;51.120;17.024;2023-11-19T04:00:00;100200;;;0.5;100.0
68320;BME280;55168;51.120;17.024;2023-11-19T04:01:00;100200;;;0.5;100.0
68320;BME280;55168;51.120;17.024;2023-11-19T04:02:00;100190;;;0.5;100.0
68320;BME280;55168;51.120;17.024;2023-11-19T04:03:00;100200;;;0.5;100.0
68320;BME280;55168;51.120;17.024;2023-11-19T04:04:00;100200;;;0.5;100.0
68320;BME280;55168;51.120;17.024;2023-11-19T04:05:00;100200;;;0.5;100.0
68320;BME280;55168;51.120;17.024;2023-11-19T04:06:00;100200;;;0.5;100.0
68320;BME280;55168;51.120;17.024;2023-11-19T04:07:00;100200;;;0.6;100.0
68320;BME280;55168;51.120;17.024;2023-11-19T04:08:00;100210;;;0.6;100.0
68320;BME280;55168;51.120;17.024;2023-11-19T04:09:00;100200;;;0.6;100.0
68320;BME280;55168;51.120;17.024;2023-11-19T04:10:00;100200;;;0.6;100.0
68320;BME280;55168;51.120;17.024;2023-11-19T04:11:00;100190;;;0.6;100.0
68320;BME280;55168;51.120;17.024;2023-11-19T04:12:00;100190;;;0.6;100.0
68320;BME280;55168;51.120;17.024;2023-11-19T04:13:00;100180;;;0.6;100.0
68320;BME280;55168;51.120;17.024;2023-11-19T04:14:00;100180;;;0.6;100.0
68320;BME280;55168;51.120;17.024;2023-11-19T04:15:00;100180;;;0.6;100.0
68320;BME280;55168;51.120;17.024;2023-11-19T04:16:00;100170;;;0.6;100.0
68320;BME280;55168;51.120;17.024;2023-11-19T04:17:00;100160;;;0.6;100.0
68320;BME280;55168;51.120;17.024;2023-11-19T04:18:00;100160;;;0.5;100.0
68320;BME280;55168;51.120;17.024;2023-11-19T04:19:00;100170;;;0.5;100.0
68320;BME280;55168;51.120;17.024;2023-11-19T04:20:00;100160;;;0.5;100.0
68320;BME280;55168;51.120;17.024;2023-11-19T04:21:00;100150;;;0.5;100.0
68320;BME280;55168;51.120;17.024;2023-11-19T04:22:00;100150;;;0.5;100.0
68320;BME280;55168;51.120;17.024;2023-11-19T04:23:00;100150;;;0.5;100.0
68320;BME280;55168;51.120;17.024;2023-11-19T04:24:00;100150;;;0.5;100.0
68320;BME280;55168;51.120;17.024;2023-11-19T04:25:00;100140;;;0.5;100.0
68320;BME280;55168;51.120;17.024;2023-11-19T04:26:02;100140;;;0.5;100.0
68320;BME280;55168;51.120;17.024;2023-11-19T04:27:00;100140;;;0.5;100.0
68320;BME280;55168;51.120;17.024;2023-11-19T04:28:00;100130;;;0.5;100.0
68320;BME280;55168;51.120;17.024;2023-11-19T04:29:00;100120;;;0.5;100.0
68320;BME280;55168;51.120;17.024;2023-11-19T04:30:00;100120;;;0.5;100.0
68320;BME280;55168;51.120;17.024;2023-11-19T04:31:00;100110;;;0.5;100.0
68320;BME280;55168;51.120;17.024;2023-11-19T04:32:00;100110;;;0.5;100.0
68320;BME280;55168;51.120;17.024;2023-11-19T04:33:00;100110;;;0.6;100.0
68320;BME280;55168;51.120;17.024;2023-11-19T04:34:00;100100;;;0.6;100.0
68320;BME280;55168;51.120;17.024;2023-11-19T04:35:00;100100;;;0.6;100.0
68320;BME280;55168;51.120;17.024;2023-11-19T04:36:00;100100;;;0.6;100.0
68320;BME280;55168;51.120;17.024;2023-11-19T04:37:00;100090;;;0.6;100.0
68320;BME280;55168;51.120;17.024;2023-11-19T04:38:00;100090;;;0.6;100.0
68320;BME280;55168;51.120;17.024;2023-11-19T04:39:00;100090;;;0.6;100.0
68320;BME280;55168;51.120;17.024;2023-11-19T04:40:00;100090;;;0.6;100.0
68320;BME280;55168;51.120;17.024;2023-11-19T04:41:00;100090;;;0.6;100.0
68320;BME280;55168;51.120;17.024;2023-11-19T04:42:00;100090;;;0.6;100.0
68320;BME280;55168;51.120;17.024;2023-11-19T04:43:00;100080;;;0.6;100.0
68320;BME280;55168;51.120;17.024;2023-11-19T04:44:00;100080;;;0.6;100.0
68320;BME280;55168;51.120;17.024;2023-11-19T04:45:00;100080;;;0.6;100.0
68320;BME280;55168;51.120;17.024;2023-11-19T04:46:00;100090;;;0.6;100.0
68320;BME280;55168;51.120;17.024;2023-11-19T04:47:00;100090;;;0.6;100.0
68320;BME280;55168;51.120;17.024;2023-11-19T04:48:00;100090;;;0.6;100.0
68320;BME280;55168;51.120;17.024;2023-11-19T04:49:00;100090;;;0.6;100.0
68320;BME280;55168;51.120;17.024;2023-11-19T04:50:00;100080;;;0.7;100.0
68320;BME280;55168;51.120;17.024;2023-11-19T04:51:00;100080;;;0.7;100.0
68320;BME280;55168;51.120;17.024;2023-11-19T04:52:00;100080;;;0.7;100.0
68320;BME280;55168;51.120;17.024;2023-11-19T04:53:00;100070;;;0.7;100.0
68320;BME280;55168;51.120;17.024;2023-11-19T04:54:00;100080;;;0.7;100.0
68320;BME280;55168;51.120;17.024;2023-11-19T04:55:00;100080;;;0.7;100.0
68320;BME280;55168;51.120;17.024;2023-11-19T04:56:00;100080;;;0.7;100.0
68320;BME280;55168;51.120;17.024;2023-11-19T04:57:00;100080;;;0.7;100.0
68320;BME280;55168;51.120;17.024;2023-11-19T04:58:00;100080;;;0.7;100.0
68320;BME280;55168;51.120;17.024;2023-11-19T04:59:00;100070;;;0.7;100.0
68320;BME280;55168;51.120;17.024;2023-11-19T05:00:00;100070;;;0.7;100.0
68320;BME280;55168;51.120;17.024;2023-11-19T05:01:00;100070;;;0.8;100.0
68320;BME280;55168;51.120;17.024;2023-11-19T05:02:00;100070;;;0.8;100.0
68320;BME280;55168;51.120;17.024;2023-11-19T05:03:00;100070;;;0.8;100.0
68320;BME280;55168;51.120;17.024;2023-11-19T05:04:00;100070;;;0.8;100.0
68320;BME280;55168;51.120;17.024;2023-11-19T05:05:00;100060;;;0.8;100.0
68320;BME280;55168;51.120;17.024;2023-11-19T05:06:00;100060;;;0.8;100.0
68320;BME280;55168;51.120;17.024;2023-11-19T05:07:00;100070;;;0.8;100.0
68320;BME280;55168;51.120;17.024;2023-11-19T05:08:00;100060;;;0.8;100.0
68320;BME280;55168;51.120;17.024;2023-11-19T05:09:00;100060;;;0.8;100.0
68320;BME280;55168;51.120;17.024;2023-11-19T05:10:00;100060;;;0.9;100.0
68320;BME280;55168;51.120;17.024;2023-11-19T05:11:00;100060;;;0.9;100.0
68320;BME280;55168;51.120;17.024;2023-11-19T05:12:00;100050;;;0.8;100.0
68320;BME280;55168;51.120;17.024;2023-11-19T05:13:00;100050;;;0.8;100.0
68320;BME280;55168;51.120;17.024;2023-11-19T05:14:01;100050;;;0.9;100.0
68320;BME280;55168;51.120;17.024;2023-11-19T05:15:00;100050;;;0.9;100.0
68320;BME280;55168;51.120;17.024;2023-11-19T05:16:00;100040;;;0.9;100.0
68320;BME280;55168;51.120;17.024;2023-11-19T05:17:00;100040;;;0.9;100.0
68320;BME280;55168;51.120;17.024;2023-11-19T05:18:00;100040;;;0.9;100.0
68320;BME280;55168;51.120;17.024;2023-11-19T05:19:00;100030;;;0.9;100.0
68320;BME280;55168;51.120;17.024;2023-11-19T05:20:00;100030;;;0.9;100.0
68320;BME280;55168;51.120;17.024;2023-11-19T05:21:00;100030;;;0.9;100.0
68320;BME280;55168;51.120;17.024;2023-11-19T05:22:00;100020;;;0.9;100.0
68320;BME280;55168;51.120;17.024;2023-11-19T05:23:00;100020;;;0.9;100.0
68320;BME280;55168;51.120;17.024;2023-11-19T05:24:00;100030;;;0.9;100.0
68320;BME280;55168;51.120;17.024;2023-11-19T05:25:00;100020;;;0.9;100.0
68320;BME280;55168;51.120;17.024;2023-11-19T05:26:01;100020;;;0.9;100.0
68320;BME280;55168;51.120;17.024;2023-11-19T05:27:00;100020;;;0.9;100.0
68320;BME280;55168;51.120;17.024;2023-11-19T05:28:00;100020;;;0.9;100.0
68320;BME280;55168;51.120;17.024;2023-11-19T05:29:00;100010;;;0.9;100.0
68320;BME280;55168;51.120;17.024;2023-11-19T05:30:00;100010;;;0.9;100.0
68320;BME280;55168;51.120;17.024;2023-11-19T05:31:00;100010;;;0.9;100.0
68320;BME280;55168;51.120;17.024;2023-11-19T05:32:00;100010;;;0.9;100.0